sensor_id;sensor_type;location;lat;lon;timestamp;P1;durP1;ratioP1;P2;durP2;ratioP2
1715;SDS011;855;48.824;9.220;2023-06-14T00:00:46;4.00;;;2.70;;
1715;SDS011;855;48.824;9.220;2023-06-14T00:03:13;7.07;;;3.53;;
1715;SDS011;855;48.824;9.220;2023-06-14T00:05:43;6.60;;;4.03;;
1715;SDS011;855;48.824;9.220;2023-06-14T00:08:11;7.10;;;3.70;;
1715;SDS011;855;48.824;9.220;2023-06-14T00:10:40;4.80;;;3.53;;
1715;SDS011;855;48.824;9.220;2023-06-14T00:13:08;12.37;;;4.40;;
1715;SDS011;855;48.824;9.220;2023-06-14T00:15:36;9.43;;;3.77;;
1715;SDS011;855;48.824;9.220;2023-06-14T00:18:03;9.10;;;3.20;;
1715;SDS011;855;48.824;9.220;2023-06-14T00:20:33;8.70;;;3.93;;
1715;SDS011;855;48.824;9.220;2023-06-14T00:23:00;8.70;;;4.13;;
1715;SDS011;855;48.824;9.220;2023-06-14T00:25:27;9.07;;;3.93;;
1715;SDS011;855;48.824;9.220;2023-06-14T00:27:54;10.23;;;4.53;;
1715;SDS011;855;48.824;9.220;2023-06-14T00:30:23;7.33;;;4.87;;
1715;SDS011;855;48.824;9.220;2023-06-14T00:32:55;12.73;;;3.50;;
1715;SDS011;855;48.824;9.220;2023-06-14T00:35:22;9.23;;;4.40;;
1715;SDS011;855;48.824;9.220;2023-06-14T00:37:50;10.80;;;4.17;;
1715;SDS011;855;48.824;9.220;2023-06-14T00:40:19;6.77;;;3.87;;
1715;SDS011;855;48.824;9.220;2023-06-14T00:42:46;4.07;;;3.10;;
1715;SDS011;855;48.824;9.220;2023-06-14T00:45:13;5.20;;;3.37;;
1715;SDS011;855;48.824;9.220;2023-06-14T00:47:41;8.17;;;3.97;;
1715;SDS011;855;48.824;9.220;2023-06-14T00:50:09;6.43;;;3.67;;
1715;SDS011;855;48.824;9.220;2023-06-14T00:52:38;6.70;;;4.07;;
1715;SDS011;855;48.824;9.220;2023-06-14T00:55:06;5.20;;;2.93;;
1715;SDS011;855;48.824;9.220;2023-06-14T00:57:33;6.50;;;3.80;;
1715;SDS011;855;48.824;9.220;2023-06-14T01:00:03;7.80;;;4.40;;
1715;SDS011;855;48.824;9.220;2023-06-14T01:02:33;10.83;;;4.23;;
1715;SDS011;855;48.824;9.220;2023-06-14T01:05:03;5.10;;;3.57;;
1715;SDS011;855;48.824;9.220;2023-06-14T01:07:33;5.73;;;2.93;;
1715;SDS011;855;48.824;9.220;2023-06-14T01:10:12;9.60;;;3.80;;
1715;SDS011;855;48.824;9.220;2023-06-14T01:12:58;8.47;;;4.20;;
1715;SDS011;855;48.824;9.220;2023-06-14T01:15:29;5.70;;;3.63;;
1715;SDS011;855;48.824;9.220;2023-06-14T01:17:57;16.50;;;5.20;;
1715;SDS011;855;48.824;9.220;2023-06-14T01:20:30;7.23;;;3.50;;
1715;SDS011;855;48.824;9.220;2023-06-14T01:23:02;8.77;;;4.43;;
1715;SDS011;855;48.824;9.220;2023-06-14T01:25:29;8.00;;;4.13;;
1715;SDS011;855;48.824;9.220;2023-06-14T01:27:57;8.60;;;4.30;;
1715;SDS011;855;48.824;9.220;2023-06-14T01:30:26;8.70;;;4.20;;
1715;SDS011;855;48.824;9.220;2023-06-14T01:32:53;8.83;;;4.50;;
1715;SDS011;855;48.824;9.220;2023-06-14T01:35:21;8.77;;;3.80;;
1715;SDS011;855;48.824;9.220;2023-06-14T01:37:48;6.40;;;3.70;;
1715;SDS011;855;48.824;9.220;2023-06-14T01:40:17;8.30;;;3.70;;
1715;SDS011;855;48.824;9.220;2023-06-14T01:42:45;11.10;;;4.37;;
1715;SDS011;855;48.824;9.220;2023-06-14T01:45:13;6.93;;;3.30;;
1715;SDS011;855;48.824;9.220;2023-06-14T01:47:41;8.10;;;3.93;;
1715;SDS011;855;48.824;9.220;2023-06-14T01:50:11;6.90;;;4.20;;
1715;SDS011;855;48.824;9.220;2023-06-14T01:52:37;8.77;;;4.13;;
1715;SDS011;855;48.824;9.220;2023-06-14T01:55:05;9.03;;;3.47;;
1715;SDS011;855;48.824;9.220;2023-06-14T01:57:34;8.57;;;4.00;;
1715;SDS011;855;48.824;9.220;2023-06-14T02:00:01;9.93;;;4.57;;
1715;SDS011;855;48.824;9.220;2023-06-14T02:02:28;8.23;;;4.70;;
1715;SDS011;855;48.824;9.220;2023-06-14T02:04:55;10.40;;;4.57;;
1715;SDS011;855;48.824;9.220;2023-06-14T02:07:22;6.77;;;4.20;;
1715;SDS011;855;48.824;9.220;2023-06-14T02:09:49;13.50;;;4.50;;
1715;SDS011;855;48.824;9.220;2023-06-14T02:12:16;6.97;;;4.00;;
1715;SDS011;855;48.824;9.220;2023-06-14T02:14:44;5.87;;;3.53;;
1715;SDS011;855;48.824;9.220;2023-06-14T02:17:11;9.53;;;4.43;;
1715;SDS011;855;48.824;9.220;2023-06-14T02:19:38;6.87;;;3.80;;
1715;SDS011;855;48.824;9.220;2023-06-14T02:22:05;8.83;;;5.57;;
1715;SDS011;855;48.824;9.220;2023-06-14T02:24:32;6.60;;;4.53;;
1715;SDS011;855;48.824;9.220;2023-06-14T02:26:59;7.97;;;4.10;;
1715;SDS011;855;48.824;9.220;2023-06-14T02:29:26;6.00;;;4.07;;
1715;SDS011;855;48.824;9.220;2023-06-14T02:31:54;10.10;;;4.90;;
1715;SDS011;855;48.824;9.220;2023-06-14T02:34:21;7.17;;;4.43;;
1715;SDS011;855;48.824;9.220;2023-06-14T02:36:47;10.83;;;4.47;;
1715;SDS011;855;48.824;9.220;2023-06-14T02:39:14;8.40;;;4.40;;
1715;SDS011;855;48.824;9.220;2023-06-14T02:41:45;6.63;;;3.90;;
1715;SDS011;855;48.824;9.220;2023-06-14T02:44:13;9.23;;;4.80;;
1715;SDS011;855;48.824;9.220;2023-06-14T02:46:40;12.07;;;4.83;;
1715;SDS011;855;48.824;9.220;2023-06-14T02:49:10;8.70;;;3.60;;
1715;SDS011;855;48.824;9.220;2023-06-14T02:51:36;11.83;;;4.10;;
1715;SDS011;855;48.824;9.220;2023-06-14T02:54:03;9.13;;;4.40;;
1715;SDS011;855;48.824;9.220;2023-06-14T02:56:30;6.37;;;4.37;;
1715;SDS011;855;48.824;9.220;2023-06-14T02:58:57;9.67;;;5.00;;
1715;SDS011;855;48.824;9.220;2023-06-14T03:01:25;9.40;;;4.17;;
1715;SDS011;855;48.824;9.220;2023-06-14T03:03:59;9.17;;;4.77;;
1715;SDS011;855;48.824;9.220;2023-06-14T03:06:29;12.83;;;5.20;;
1715;SDS011;855;48.824;9.220;2023-06-14T03:08:56;9.77;;;4.90;;
1715;SDS011;855;48.824;9.220;2023-06-14T03:11:25;7.93;;;4.00;;
1715;SDS011;855;48.824;9.220;2023-06-14T03:13:52;6.40;;;4.40;;
1715;SDS011;855;48.824;9.220;2023-06-14T03:16:20;12.37;;;5.13;;
1715;SDS011;855;48.824;9.220;2023-06-14T03:18:49;7.47;;;4.40;;
1715;SDS011;855;48.824;9.220;2023-06-14T03:21:16;10.77;;;4.40;;
1715;SDS011;855;48.824;9.220;2023-06-14T03:23:44;10.03;;;4.80;;
1715;SDS011;855;48.824;9.220;2023-06-14T03:26:11;10.83;;;5.20;;
1715;SDS011;855;48.824;9.220;2023-06-14T03:28:40;9.50;;;5.07;;
1715;SDS011;855;48.824;9.220;2023-06-14T03:31:07;7.13;;;4.73;;
1715;SDS011;855;48.824;9.220;2023-06-14T03:33:34;11.63;;;4.70;;
1715;SDS011;855;48.824;9.220;2023-06-14T03:36:01;6.30;;;4.00;;
1715;SDS011;855;48.824;9.220;2023-06-14T03:38:28;11.17;;;4.57;;
1715;SDS011;855;48.824;9.220;2023-06-14T03:40:57;6.90;;;4.60;;
1715;SDS011;855;48.824;9.220;2023-06-14T03:43:26;11.37;;;4.70;;
1715;SDS011;855;48.824;9.220;2023-06-14T03:45:56;11.57;;;5.10;;
1715;SDS011;855;48.824;9.220;2023-06-14T03:48:23;9.47;;;4.50;;
1715;SDS011;855;48.824;9.220;2023-06-14T03:50:52;9.00;;;4.73;;
1715;SDS011;855;48.824;9.220;2023-06-14T03:53:20;9.27;;;4.80;;
1715;SDS011;855;48.824;9.220;2023-06-14T03:55:48;9.57;;;4.57;;
1715;SDS011;855;48.824;9.220;2023-06-14T03:58:18;8.50;;;4.93;;
1715;SDS011;855;48.824;9.220;2023-06-14T04:00:45;6.77;;;3.90;;
1715;SDS011;855;48.824;9.220;2023-06-14T04:03:12;9.00;;;4.13;;
1715;SDS011;855;48.824;9.220;2023-06-14T04:05:40;19.57;;;5.10;;
1715;SDS011;855;48.824;9.220;2023-06-14T04:08:07;8.33;;;4.50;;
1715;SDS011;855;48.824;9.220;2023-06-14T04:10:35;7.03;;;4.50;;
1715;SDS011;855;48.824;9.220;2023-06-14T04:13:02;24.33;;;3.67;;
1715;SDS011;855;48.824;9.220;2023-06-14T04:15:31;12.73;;;5.10;;
1715;SDS011;855;48.824;9.220;2023-06-14T04:18:00;10.77;;;5.03;;
1715;SDS011;855;48.824;9.220;2023-06-14T04:20:27;7.00;;;4.07;;
1715;SDS011;855;48.824;9.220;2023-06-14T04:22:56;8.80;;;4.67;;
1715;SDS011;855;48.824;9.220;2023-06-14T04:25:23;9.53;;;4.20;;
1715;SDS011;855;48.824;9.220;2023-06-14T04:27:51;12.53;;;4.47;;
1715;SDS011;855;48.824;9.220;2023-06-14T04:30:18;7.90;;;4.20;;
1715;SDS011;855;48.824;9.220;2023-06-14T04:32:47;7.90;;;4.90;;
1715;SDS011;855;48.824;9.220;2023-06-14T04:35:15;7.53;;;4.60;;
1715;SDS011;855;48.824;9.220;2023-06-14T04:37:42;6.83;;;4.33;;
1715;SDS011;855;48.824;9.220;2023-06-14T04:40:10;10.20;;;5.73;;
1715;SDS011;855;48.824;9.220;2023-06-14T04:42:37;7.37;;;3.70;;
1715;SDS011;855;48.824;9.220;2023-06-14T04:45:06;7.73;;;4.60;;
1715;SDS011;855;48.824;9.220;2023-06-14T04:47:34;8.80;;;4.17;;
1715;SDS011;855;48.824;9.220;2023-06-14T04:50:04;13.93;;;4.93;;
1715;SDS011;855;48.824;9.220;2023-06-14T04:52:31;7.93;;;4.60;;
1715;SDS011;855;48.824;9.220;2023-06-14T04:54:58;7.13;;;3.80;;
1715;SDS011;855;48.824;9.220;2023-06-14T04:57:25;9.47;;;3.90;;
1715;SDS011;855;48.824;9.220;2023-06-14T04:59:52;8.93;;;4.37;;
1715;SDS011;855;48.824;9.220;2023-06-14T05:02:20;7.33;;;3.97;;
1715;SDS011;855;48.824;9.220;2023-06-14T05:04:48;8.80;;;4.73;;
1715;SDS011;855;48.824;9.220;2023-06-14T05:07:16;10.03;;;5.07;;
1715;SDS011;855;48.824;9.220;2023-06-14T05:09:43;7.73;;;4.80;;
1715;SDS011;855;48.824;9.220;2023-06-14T05:12:10;11.53;;;3.90;;
1715;SDS011;855;48.824;9.220;2023-06-14T05:14:37;9.47;;;4.10;;
1715;SDS011;855;48.824;9.220;2023-06-14T05:17:04;9.43;;;4.20;;
1715;SDS011;855;48.824;9.220;2023-06-14T05:19:32;10.33;;;4.87;;
1715;SDS011;855;48.824;9.220;2023-06-14T05:21:58;7.87;;;3.93;;
1715;SDS011;855;48.824;9.220;2023-06-14T05:24:26;7.03;;;4.20;;
1715;SDS011;855;48.824;9.220;2023-06-14T05:26:55;13.63;;;4.40;;
1715;SDS011;855;48.824;9.220;2023-06-14T05:29:22;6.47;;;3.53;;
1715;SDS011;855;48.824;9.220;2023-06-14T05:31:49;6.10;;;3.47;;
1715;SDS011;855;48.824;9.220;2023-06-14T05:34:15;7.43;;;3.50;;
1715;SDS011;855;48.824;9.220;2023-06-14T05:36:42;7.00;;;4.03;;
1715;SDS011;855;48.824;9.220;2023-06-14T05:39:09;6.90;;;3.73;;
1715;SDS011;855;48.824;9.220;2023-06-14T05:41:37;18.43;;;5.23;;
1715;SDS011;855;48.824;9.220;2023-06-14T05:44:04;5.40;;;3.40;;
1715;SDS011;855;48.824;9.220;2023-06-14T05:46:32;8.67;;;4.37;;
1715;SDS011;855;48.824;9.220;2023-06-14T05:48:59;11.63;;;5.40;;
1715;SDS011;855;48.824;9.220;2023-06-14T05:51:26;12.87;;;5.47;;
1715;SDS011;855;48.824;9.220;2023-06-14T05:53:52;7.00;;;4.10;;
1715;SDS011;855;48.824;9.220;2023-06-14T05:56:19;15.53;;;4.60;;
1715;SDS011;855;48.824;9.220;2023-06-14T05:58:47;6.73;;;4.30;;
1715;SDS011;855;48.824;9.220;2023-06-14T06:01:15;10.17;;;4.37;;
1715;SDS011;855;48.824;9.220;2023-06-14T06:03:42;7.77;;;3.93;;
1715;SDS011;855;48.824;9.220;2023-06-14T06:06:11;7.80;;;4.80;;
1715;SDS011;855;48.824;9.220;2023-06-14T06:08:38;8.13;;;4.30;;
1715;SDS011;855;48.824;9.220;2023-06-14T06:11:05;10.03;;;5.00;;
1715;SDS011;855;48.824;9.220;2023-06-14T06:13:32;7.60;;;4.10;;
1715;SDS011;855;48.824;9.220;2023-06-14T06:16:03;8.37;;;3.60;;
1715;SDS011;855;48.824;9.220;2023-06-14T06:18:30;10.83;;;4.30;;
1715;SDS011;855;48.824;9.220;2023-06-14T06:20:57;11.77;;;3.90;;
1715;SDS011;855;48.824;9.220;2023-06-14T06:23:24;8.70;;;4.23;;
1715;SDS011;855;48.824;9.220;2023-06-14T06:25:51;7.40;;;4.50;;
1715;SDS011;855;48.824;9.220;2023-06-14T06:28:18;6.93;;;3.77;;
1715;SDS011;855;48.824;9.220;2023-06-14T06:30:45;5.97;;;4.17;;
1715;SDS011;855;48.824;9.220;2023-06-14T06:33:13;8.53;;;4.00;;
1715;SDS011;855;48.824;9.220;2023-06-14T06:35:40;10.07;;;4.00;;
1715;SDS011;855;48.824;9.220;2023-06-14T06:38:08;8.27;;;3.73;;
1715;SDS011;855;48.824;9.220;2023-06-14T06:40:35;9.50;;;4.07;;
1715;SDS011;855;48.824;9.220;2023-06-14T06:43:02;6.37;;;3.00;;
1715;SDS011;855;48.824;9.220;2023-06-14T06:45:29;5.10;;;3.50;;
1715;SDS011;855;48.824;9.220;2023-06-14T06:47:55;6.67;;;3.70;;
1715;SDS011;855;48.824;9.220;2023-06-14T06:50:24;6.97;;;4.23;;
1715;SDS011;855;48.824;9.220;2023-06-14T06:52:51;6.03;;;3.83;;
1715;SDS011;855;48.824;9.220;2023-06-14T06:55:17;6.23;;;4.13;;
1715;SDS011;855;48.824;9.220;2023-06-14T06:57:44;8.30;;;4.13;;
1715;SDS011;855;48.824;9.220;2023-06-14T07:00:11;14.17;;;3.80;;
1715;SDS011;855;48.824;9.220;2023-06-14T07:02:38;7.50;;;3.87;;
1715;SDS011;855;48.824;9.220;2023-06-14T07:05:05;7.43;;;4.17;;
1715;SDS011;855;48.824;9.220;2023-06-14T07:07:34;7.13;;;3.93;;
1715;SDS011;855;48.824;9.220;2023-06-14T07:10:01;8.07;;;4.17;;
1715;SDS011;855;48.824;9.220;2023-06-14T07:12:29;9.77;;;4.37;;
1715;SDS011;855;48.824;9.220;2023-06-14T07:14:58;12.43;;;4.50;;
1715;SDS011;855;48.824;9.220;2023-06-14T07:17:28;9.33;;;4.70;;
1715;SDS011;855;48.824;9.220;2023-06-14T07:19:55;10.70;;;4.40;;
1715;SDS011;855;48.824;9.220;2023-06-14T07:22:22;7.23;;;4.07;;
1715;SDS011;855;48.824;9.220;2023-06-14T07:24:50;7.67;;;4.50;;
1715;SDS011;855;48.824;9.220;2023-06-14T07:27:17;4.90;;;3.93;;
1715;SDS011;855;48.824;9.220;2023-06-14T07:29:44;9.93;;;4.63;;
1715;SDS011;855;48.824;9.220;2023-06-14T07:32:11;9.03;;;4.13;;
1715;SDS011;855;48.824;9.220;2023-06-14T07:34:37;6.97;;;3.63;;
1715;SDS011;855;48.824;9.220;2023-06-14T07:37:04;5.73;;;3.73;;
1715;SDS011;855;48.824;9.220;2023-06-14T07:39:31;9.83;;;3.40;;
1715;SDS011;855;48.824;9.220;2023-06-14T07:41:59;8.93;;;4.13;;
1715;SDS011;855;48.824;9.220;2023-06-14T07:44:29;10.63;;;4.30;;
1715;SDS011;855;48.824;9.220;2023-06-14T07:46:56;11.80;;;5.03;;
1715;SDS011;855;48.824;9.220;2023-06-14T07:49:25;11.77;;;3.90;;
1715;SDS011;855;48.824;9.220;2023-06-14T07:51:52;6.70;;;3.47;;
1715;SDS011;855;48.824;9.220;2023-06-14T07:54:18;5.87;;;3.90;;
1715;SDS011;855;48.824;9.220;2023-06-14T07:56:49;4.60;;;3.63;;
1715;SDS011;855;48.824;9.220;2023-06-14T07:59:18;8.33;;;4.50;;
1715;SDS011;855;48.824;9.220;2023-06-14T08:01:44;11.43;;;4.17;;
1715;SDS011;855;48.824;9.220;2023-06-14T08:04:13;9.30;;;4.40;;
1715;SDS011;855;48.824;9.220;2023-06-14T08:06:40;11.87;;;4.20;;
1715;SDS011;855;48.824;9.220;2023-06-14T08:09:09;8.30;;;4.40;;
1715;SDS011;855;48.824;9.220;2023-06-14T08:11:36;7.27;;;3.93;;
1715;SDS011;855;48.824;9.220;2023-06-14T08:14:03;7.97;;;4.20;;
1715;SDS011;855;48.824;9.220;2023-06-14T08:16:31;7.27;;;3.07;;
1715;SDS011;855;48.824;9.220;2023-06-14T08:18:58;7.40;;;3.30;;
1715;SDS011;855;48.824;9.220;2023-06-14T08:21:26;19.73;;;3.63;;
1715;SDS011;855;48.824;9.220;2023-06-14T08:23:54;6.20;;;3.50;;
1715;SDS011;855;48.824;9.220;2023-06-14T08:26:20;5.30;;;3.13;;
1715;SDS011;855;48.824;9.220;2023-06-14T08:28:48;5.93;;;3.60;;
1715;SDS011;855;48.824;9.220;2023-06-14T08:31:14;6.20;;;3.67;;
1715;SDS011;855;48.824;9.220;2023-06-14T08:33:43;6.88;;;3.92;;
1715;SDS011;855;48.824;9.220;2023-06-14T08:36:10;5.60;;;3.90;;
1715;SDS011;855;48.824;9.220;2023-06-14T08:38:37;7.40;;;3.73;;
1715;SDS011;855;48.824;9.220;2023-06-14T08:41:04;6.23;;;3.57;;
1715;SDS011;855;48.824;9.220;2023-06-14T08:43:32;6.70;;;3.80;;
1715;SDS011;855;48.824;9.220;2023-06-14T08:46:00;6.27;;;3.43;;
1715;SDS011;855;48.824;9.220;2023-06-14T08:48:30;5.10;;;2.80;;
1715;SDS011;855;48.824;9.220;2023-06-14T08:51:00;15.50;;;3.67;;
1715;SDS011;855;48.824;9.220;2023-06-14T08:53:28;6.77;;;3.60;;
1715;SDS011;855;48.824;9.220;2023-06-14T08:55:57;6.50;;;3.20;;
1715;SDS011;855;48.824;9.220;2023-06-14T08:58:26;6.07;;;3.60;;
1715;SDS011;855;48.824;9.220;2023-06-14T09:00:54;9.80;;;4.17;;
1715;SDS011;855;48.824;9.220;2023-06-14T09:03:23;5.93;;;4.17;;
1715;SDS011;855;48.824;9.220;2023-06-14T09:05:56;5.43;;;3.27;;
1715;SDS011;855;48.824;9.220;2023-06-14T09:08:25;4.63;;;3.00;;
1715;SDS011;855;48.824;9.220;2023-06-14T09:10:55;6.60;;;4.63;;
1715;SDS011;855;48.824;9.220;2023-06-14T09:13:22;10.07;;;4.70;;
1715;SDS011;855;48.824;9.220;2023-06-14T09:15:49;11.53;;;3.50;;
1715;SDS011;855;48.824;9.220;2023-06-14T09:18:16;6.70;;;3.80;;
1715;SDS011;855;48.824;9.220;2023-06-14T09:20:45;4.90;;;3.30;;
1715;SDS011;855;48.824;9.220;2023-06-14T09:23:13;6.33;;;3.83;;
1715;SDS011;855;48.824;9.220;2023-06-14T09:25:47;7.73;;;3.10;;
1715;SDS011;855;48.824;9.220;2023-06-14T09:28:14;7.50;;;3.57;;
1715;SDS011;855;48.824;9.220;2023-06-14T09:30:41;7.03;;;3.40;;
1715;SDS011;855;48.824;9.220;2023-06-14T09:33:08;5.33;;;3.60;;
1715;SDS011;855;48.824;9.220;2023-06-14T09:35:35;8.50;;;3.97;;
1715;SDS011;855;48.824;9.220;2023-06-14T09:38:02;4.73;;;3.77;;
1715;SDS011;855;48.824;9.220;2023-06-14T09:40:31;9.80;;;3.80;;
1715;SDS011;855;48.824;9.220;2023-06-14T09:43:02;4.90;;;3.50;;
1715;SDS011;855;48.824;9.220;2023-06-14T09:45:34;7.27;;;3.60;;
1715;SDS011;855;48.824;9.220;2023-06-14T09:48:02;5.77;;;3.20;;
1715;SDS011;855;48.824;9.220;2023-06-14T09:50:29;5.47;;;3.80;;
1715;SDS011;855;48.824;9.220;2023-06-14T09:52:56;4.67;;;3.10;;
1715;SDS011;855;48.824;9.220;2023-06-14T09:55:28;9.07;;;4.10;;
1715;SDS011;855;48.824;9.220;2023-06-14T09:58:01;3.20;;;2.80;;
1715;SDS011;855;48.824;9.220;2023-06-14T10:00:31;6.17;;;3.30;;
1715;SDS011;855;48.824;9.220;2023-06-14T10:03:00;4.40;;;2.90;;
1715;SDS011;855;48.824;9.220;2023-06-14T10:05:32;8.40;;;3.63;;
1715;SDS011;855;48.824;9.220;2023-06-14T10:08:04;6.40;;;4.10;;
1715;SDS011;855;48.824;9.220;2023-06-14T10:10:33;3.70;;;3.13;;
1715;SDS011;855;48.824;9.220;2023-06-14T10:13:02;6.03;;;3.63;;
1715;SDS011;855;48.824;9.220;2023-06-14T10:15:30;4.33;;;2.63;;
1715;SDS011;855;48.824;9.220;2023-06-14T10:18:01;11.47;;;3.83;;
1715;SDS011;855;48.824;9.220;2023-06-14T10:20:35;9.93;;;4.07;;
1715;SDS011;855;48.824;9.220;2023-06-14T10:23:09;4.07;;;2.80;;
1715;SDS011;855;48.824;9.220;2023-06-14T10:25:39;5.40;;;3.30;;
1715;SDS011;855;48.824;9.220;2023-06-14T10:28:18;15.90;;;4.50;;
1715;SDS011;855;48.824;9.220;2023-06-14T10:33:30;7.20;;;3.20;;
1715;SDS011;855;48.824;9.220;2023-06-14T10:36:07;5.80;;;3.20;;
1715;SDS011;855;48.824;9.220;2023-06-14T10:38:36;5.13;;;2.67;;
1715;SDS011;855;48.824;9.220;2023-06-14T10:41:03;6.53;;;3.30;;
1715;SDS011;855;48.824;9.220;2023-06-14T10:43:32;6.00;;;3.20;;
1715;SDS011;855;48.824;9.220;2023-06-14T10:46:13;7.00;;;3.57;;
1715;SDS011;855;48.824;9.220;2023-06-14T10:48:40;8.40;;;3.90;;
1715;SDS011;855;48.824;9.220;2023-06-14T10:51:13;8.03;;;3.00;;
1715;SDS011;855;48.824;9.220;2023-06-14T10:53:45;4.40;;;3.23;;
1715;SDS011;855;48.824;9.220;2023-06-14T10:56:22;3.17;;;2.60;;
1715;SDS011;855;48.824;9.220;2023-06-14T10:58:54;6.47;;;3.80;;
1715;SDS011;855;48.824;9.220;2023-06-14T11:01:25;7.87;;;2.83;;
1715;SDS011;855;48.824;9.220;2023-06-14T11:04:06;6.90;;;3.17;;
1715;SDS011;855;48.824;9.220;2023-06-14T11:06:41;5.77;;;2.77;;
1715;SDS011;855;48.824;9.220;2023-06-14T11:09:19;6.20;;;3.50;;
1715;SDS011;855;48.824;9.220;2023-06-14T11:12:08;4.80;;;3.00;;
1715;SDS011;855;48.824;9.220;2023-06-14T11:14:38;5.23;;;2.83;;
1715;SDS011;855;48.824;9.220;2023-06-14T11:17:05;4.57;;;3.17;;
1715;SDS011;855;48.824;9.220;2023-06-14T11:19:32;5.00;;;2.90;;
1715;SDS011;855;48.824;9.220;2023-06-14T11:21:58;4.23;;;2.93;;
1715;SDS011;855;48.824;9.220;2023-06-14T11:24:27;3.30;;;2.60;;
1715;SDS011;855;48.824;9.220;2023-06-14T11:26:55;9.20;;;3.13;;
1715;SDS011;855;48.824;9.220;2023-06-14T11:29:23;3.43;;;2.30;;
1715;SDS011;855;48.824;9.220;2023-06-14T11:31:51;3.60;;;2.60;;
1715;SDS011;855;48.824;9.220;2023-06-14T11:34:18;3.93;;;2.90;;
1715;SDS011;855;48.824;9.220;2023-06-14T11:36:45;6.13;;;2.77;;
1715;SDS011;855;48.824;9.220;2023-06-14T11:39:12;5.90;;;3.10;;
1715;SDS011;855;48.824;9.220;2023-06-14T11:41:42;5.27;;;2.80;;
1715;SDS011;855;48.824;9.220;2023-06-14T11:44:10;4.60;;;2.80;;
1715;SDS011;855;48.824;9.220;2023-06-14T11:46:40;5.43;;;2.47;;
1715;SDS011;855;48.824;9.220;2023-06-14T11:49:11;4.10;;;2.80;;
1715;SDS011;855;48.824;9.220;2023-06-14T11:51:38;5.30;;;2.87;;
1715;SDS011;855;48.824;9.220;2023-06-14T11:54:05;3.80;;;2.57;;
1715;SDS011;855;48.824;9.220;2023-06-14T11:56:33;4.77;;;2.70;;
1715;SDS011;855;48.824;9.220;2023-06-14T11:59:04;3.43;;;1.97;;
1715;SDS011;855;48.824;9.220;2023-06-14T12:01:32;3.77;;;2.20;;
1715;SDS011;855;48.824;9.220;2023-06-14T12:04:02;5.87;;;3.80;;
1715;SDS011;855;48.824;9.220;2023-06-14T12:06:30;6.27;;;3.20;;
1715;SDS011;855;48.824;9.220;2023-06-14T12:09:04;3.73;;;2.70;;
1715;SDS011;855;48.824;9.220;2023-06-14T12:11:38;4.80;;;3.07;;
1715;SDS011;855;48.824;9.220;2023-06-14T12:14:05;5.67;;;2.63;;
1715;SDS011;855;48.824;9.220;2023-06-14T12:16:32;6.00;;;2.17;;
1715;SDS011;855;48.824;9.220;2023-06-14T12:19:07;5.80;;;3.20;;
1715;SDS011;855;48.824;9.220;2023-06-14T12:21:38;8.87;;;2.90;;
1715;SDS011;855;48.824;9.220;2023-06-14T12:24:08;3.17;;;2.20;;
1715;SDS011;855;48.824;9.220;2023-06-14T12:26:37;3.57;;;2.70;;
1715;SDS011;855;48.824;9.220;2023-06-14T12:29:05;4.27;;;2.53;;
1715;SDS011;855;48.824;9.220;2023-06-14T12:31:33;4.97;;;2.90;;
1715;SDS011;855;48.824;9.220;2023-06-14T12:34:00;4.63;;;2.97;;
1715;SDS011;855;48.824;9.220;2023-06-14T12:36:26;5.30;;;2.30;;
1715;SDS011;855;48.824;9.220;2023-06-14T12:38:55;4.50;;;3.30;;
1715;SDS011;855;48.824;9.220;2023-06-14T12:41:21;6.57;;;2.90;;
1715;SDS011;855;48.824;9.220;2023-06-14T12:43:49;5.93;;;2.73;;
1715;SDS011;855;48.824;9.220;2023-06-14T12:46:17;4.37;;;2.60;;
1715;SDS011;855;48.824;9.220;2023-06-14T12:48:44;7.23;;;2.90;;
1715;SDS011;855;48.824;9.220;2023-06-14T12:51:10;3.43;;;2.43;;
1715;SDS011;855;48.824;9.220;2023-06-14T12:53:37;3.80;;;2.97;;
1715;SDS011;855;48.824;9.220;2023-06-14T12:56:06;3.53;;;2.70;;
1715;SDS011;855;48.824;9.220;2023-06-14T12:58:33;4.03;;;2.70;;
1715;SDS011;855;48.824;9.220;2023-06-14T13:00:59;4.87;;;2.53;;
1715;SDS011;855;48.824;9.220;2023-06-14T13:03:26;3.87;;;2.50;;
1715;SDS011;855;48.824;9.220;2023-06-14T13:05:53;8.77;;;3.00;;
1715;SDS011;855;48.824;9.220;2023-06-14T13:08:20;4.30;;;2.77;;
1715;SDS011;855;48.824;9.220;2023-06-14T13:10:47;5.57;;;3.20;;
1715;SDS011;855;48.824;9.220;2023-06-14T13:13:15;5.57;;;2.17;;
1715;SDS011;855;48.824;9.220;2023-06-14T13:15:42;5.63;;;2.97;;
1715;SDS011;855;48.824;9.220;2023-06-14T13:18:13;5.03;;;2.70;;
1715;SDS011;855;48.824;9.220;2023-06-14T13:20:40;5.00;;;2.93;;
1715;SDS011;855;48.824;9.220;2023-06-14T13:23:07;3.20;;;2.40;;
1715;SDS011;855;48.824;9.220;2023-06-14T13:25:34;5.53;;;3.10;;
1715;SDS011;855;48.824;9.220;2023-06-14T13:28:02;4.10;;;2.17;;
1715;SDS011;855;48.824;9.220;2023-06-14T13:30:31;8.83;;;2.60;;
1715;SDS011;855;48.824;9.220;2023-06-14T13:33:00;4.17;;;2.60;;
1715;SDS011;855;48.824;9.220;2023-06-14T13:35:28;5.03;;;3.10;;
1715;SDS011;855;48.824;9.220;2023-06-14T13:37:55;5.90;;;2.60;;
1715;SDS011;855;48.824;9.220;2023-06-14T13:40:22;5.90;;;3.00;;
1715;SDS011;855;48.824;9.220;2023-06-14T13:42:49;6.43;;;2.90;;
1715;SDS011;855;48.824;9.220;2023-06-14T13:45:18;16.17;;;2.50;;
1715;SDS011;855;48.824;9.220;2023-06-14T13:47:46;4.70;;;2.70;;
1715;SDS011;855;48.824;9.220;2023-06-14T13:50:13;4.87;;;2.73;;
1715;SDS011;855;48.824;9.220;2023-06-14T13:52:41;4.73;;;3.03;;
1715;SDS011;855;48.824;9.220;2023-06-14T13:55:08;7.10;;;3.73;;
1715;SDS011;855;48.824;9.220;2023-06-14T13:57:35;6.37;;;2.97;;
1715;SDS011;855;48.824;9.220;2023-06-14T14:00:02;8.37;;;3.57;;
1715;SDS011;855;48.824;9.220;2023-06-14T14:02:29;4.40;;;2.80;;
1715;SDS011;855;48.824;9.220;2023-06-14T14:04:58;6.27;;;3.17;;
1715;SDS011;855;48.824;9.220;2023-06-14T14:07:25;3.33;;;2.30;;
1715;SDS011;855;48.824;9.220;2023-06-14T14:09:53;5.73;;;4.03;;
1715;SDS011;855;48.824;9.220;2023-06-14T14:12:22;8.80;;;2.63;;
1715;SDS011;855;48.824;9.220;2023-06-14T14:14:50;6.20;;;2.70;;
1715;SDS011;855;48.824;9.220;2023-06-14T14:17:17;7.23;;;3.07;;
1715;SDS011;855;48.824;9.220;2023-06-14T14:19:44;5.70;;;3.27;;
1715;SDS011;855;48.824;9.220;2023-06-14T14:22:12;9.80;;;3.67;;
1715;SDS011;855;48.824;9.220;2023-06-14T14:24:39;7.87;;;4.23;;
1715;SDS011;855;48.824;9.220;2023-06-14T14:27:06;5.23;;;3.30;;
1715;SDS011;855;48.824;9.220;2023-06-14T14:29:32;5.50;;;3.00;;
1715;SDS011;855;48.824;9.220;2023-06-14T14:32:00;4.17;;;2.47;;
1715;SDS011;855;48.824;9.220;2023-06-14T14:34:27;6.97;;;2.83;;
1715;SDS011;855;48.824;9.220;2023-06-14T14:36:54;5.83;;;3.50;;
1715;SDS011;855;48.824;9.220;2023-06-14T14:39:22;6.65;;;3.05;;
1715;SDS011;855;48.824;9.220;2023-06-14T14:41:49;6.90;;;3.43;;
1715;SDS011;855;48.824;9.220;2023-06-14T14:44:16;3.83;;;2.83;;
1715;SDS011;855;48.824;9.220;2023-06-14T14:46:44;10.30;;;2.93;;
1715;SDS011;855;48.824;9.220;2023-06-14T14:49:11;5.17;;;2.70;;
1715;SDS011;855;48.824;9.220;2023-06-14T14:51:37;6.27;;;3.47;;
1715;SDS011;855;48.824;9.220;2023-06-14T14:54:05;3.60;;;2.70;;
1715;SDS011;855;48.824;9.220;2023-06-14T14:56:33;7.30;;;3.60;;
1715;SDS011;855;48.824;9.220;2023-06-14T14:59:02;4.47;;;2.60;;
1715;SDS011;855;48.824;9.220;2023-06-14T15:01:30;5.33;;;2.40;;
1715;SDS011;855;48.824;9.220;2023-06-14T15:03:59;5.13;;;2.70;;
1715;SDS011;855;48.824;9.220;2023-06-14T15:06:26;7.20;;;2.60;;
1715;SDS011;855;48.824;9.220;2023-06-14T15:08:53;6.63;;;2.70;;
1715;SDS011;855;48.824;9.220;2023-06-14T15:11:20;5.20;;;2.53;;
1715;SDS011;855;48.824;9.220;2023-06-14T15:13:48;4.90;;;3.17;;
1715;SDS011;855;48.824;9.220;2023-06-14T15:16:15;5.63;;;3.20;;
1715;SDS011;855;48.824;9.220;2023-06-14T15:18:42;12.73;;;2.83;;
1715;SDS011;855;48.824;9.220;2023-06-14T15:21:09;3.07;;;2.77;;
1715;SDS011;855;48.824;9.220;2023-06-14T15:23:35;6.30;;;2.90;;
1715;SDS011;855;48.824;9.220;2023-06-14T15:26:02;4.37;;;2.77;;
1715;SDS011;855;48.824;9.220;2023-06-14T15:28:32;5.07;;;3.10;;
1715;SDS011;855;48.824;9.220;2023-06-14T15:31:00;6.20;;;3.10;;
1715;SDS011;855;48.824;9.220;2023-06-14T15:33:27;16.53;;;2.30;;
1715;SDS011;855;48.824;9.220;2023-06-14T15:35:53;4.20;;;3.07;;